AirNav   Everest Fuels
 
 1376 users online  

S64 Stanford Airport/Biggerstaff Field
Stanford, Montana, USA

GOING TO STANFORD?


FAA INFORMATION EFFECTIVE 05 NOVEMBER 2020

Location

FAA Identifier: S64
Lat/Long: 47-08-48.1839N 110-13-47.1593W
47-08.803065N 110-13.785988W
47.1467178,-110.2297665
(estimated)
Elevation: 4327.5 ft. / 1319 m (estimated)
Variation: 16E (1985)
From city: 1 mile S of STANFORD, MT
Time zone: UTC -7 (UTC -6 during Daylight Saving Time)
Zip code: 59479

Airport Operations

Airport use: Open to the public
Activation date: 04/1947
Control tower: no
ARTCC: SALT LAKE CITY CENTER
FSS: GREAT FALLS FLIGHT SERVICE STATION
NOTAMs facility: GTF (NOTAM-D service available)
Attendance: IRREG
Wind indicator: lighted
Segmented circle: yes
Lights: ACTVT MIRL RY 11/29 AND PAPI RY 29 - CTAF.
Beacon: white-green (lighted land airport)
Operates sunset to sunrise.

Airport Communications

CTAF/UNICOM: 122.8

Nearby radio navigation aids

VOR radial/distance  VOR name  Freq  Var
LWTr267/26.1LEWISTOWN VOR/DME115.4515E

Airport Services

Parking: hangars and tiedowns
Airframe service: NONE
Powerplant service: NONE
Bottled oxygen: NONE
Bulk oxygen: NONE

Runway Information

Runway 11/29

Dimensions: 4200 x 75 ft. / 1280 x 23 m
Surface: asphalt, in good condition
Weight bearing capacity: 
Single wheel: 12.0
Runway edge lights: medium intensity
RUNWAY 11  RUNWAY 29
Latitude: 47-09.076000N47-08.661167N
Longitude: 110-14.240500W110-13.430833W
Elevation: 4324.5 ft.4313.2 ft.
Traffic pattern: leftleft
Markings: basic, in good conditionbasic, in good condition
Visual slope indicator: 2-light PAPI on left (3.00 degrees glide path)

Runway 7/25

Dimensions: 1960 x 100 ft. / 597 x 30 m
Surface: turf, in good condition
RUNWAY 7  RUNWAY 25
Latitude: 47-08.663833N47-08.661500N
Longitude: 110-13.915500W110-13.443000W
Elevation: 4327.5 ft.4313.6 ft.
Traffic pattern: leftleft

Airport Ownership and Management from official FAA records

Ownership: Publicly-owned
Owner: JUDITH BASIN COUNTY
COUNTY COURTHOUSE PO 427
STANFORD, MT 59479
Phone 406-566-2277
Manager: TYLER YOUDERIAN
PO BOX 400
STANFORD, MT 59479
Phone (406) 490-7708

Airport Operational Statistics

Aircraft based on the field: 10
Single engine airplanes: 10
    
Aircraft operations: avg 82/week *
77% local general aviation
23% transient general aviation
* for 12-month period ending 30 May 2017

Additional Remarks

CONDS NOT RPRTD DURG WINT MONTHS CTC MGR FOR CONDS 406-490-2277
FOR CD CTC SALT LAKE ARTCC AT 801-320-2568.
COURTESY CAR AVBL.

Instrument Procedures

There are no published instrument procedures at S64.

Some nearby airports with instrument procedures:

KLWT - Lewistown Municipal Airport (32 nm E)
KHWQ - Wheatland County Airport at Harlowton (45 nm S)
79S - Fort Benton Airport (45 nm N)
KGTF - Great Falls International Airport (51 nm NW)
KHLN - Helena Regional Airport (79 nm SW)
 
Loc | Ops | Rwys | IFR | FBO | Links
Com | Nav | Svcs | Stats | Notes
Area around S64 (Stanford Airport/Biggerstaff Field)
 
Road maps at: MapQuest Bing Google
 
Aerial photo
WARNING: Photo may not be current or correct
Aerial photo of S64 (Stanford Airport/Biggerstaff Field)
Photo courtesy of kestrelaerial.com
Photo taken 26-Sep-2008
looking northwest.

Do you have a better or more recent aerial photo of Stanford Airport/Biggerstaff Field that you would like to share? If so, please send us your photo.

 
Sectional chart

 
Airport distance calculator
Flying to Stanford Airport/Biggerstaff Field? Find the distance to fly.

From to S64

Sunrise and sunset
Times for 25-Nov-2020
 Local
(UTC-7)
 Zulu
(UTC)
Morning civil twilight07:0714:07
Sunrise07:4114:41
Sunset16:3523:35
Evening civil twilight17:1000:10

Current date and time
Zulu (UTC)  25-Nov-2020 17:10:49
Local (UTC-7)  25-Nov-2020 10:10:49
 
METAR
KLWT 
32nm E 
251654Z AUTO 26014KT 10SM BKN120 06/M07 A2965 RMK AO2 SLP062 T00561067
KGFA 
44nm NW 
251658Z AUTO 22017G22KT 10SM FEW150 06/M04 A2968 RMK AO2 SLP071 T00561044 $
K79S 
45nm N 
251700Z AUTO 18016G24KT 10SM 07/M06 A2966
K7S6 
48nm SW 
251655Z AUTO 15013G19KT 5SM HZ M01/M04 A2978 RMK A01 White Sulphur Spg
TAF
KLWT 
32nm E 
251129Z 2512/2612 21009KT P6SM FEW100 SCT250 FM252000 28020KT P6SM SCT045 OVC050 FM252200 29017KT P6SM BKN021 BKN025 FM260300 28010G19KT P6SM FEW029 SCT060
NOTAMs
Click for the latest NOTAMs
NOTAMs are issued by the DoD/FAA and will open in a separate window not controlled by AirNav.

 

 
 

Would you like to see your business listed on this page?

 If your business provides an interesting product or service to pilots, flight crews, aircraft, or users of the Stanford Airport/Biggerstaff Field, you should consider listing it here.  To start the listing process, click on the button below
 
Add a business
 

Other Pages about Stanford Airport/Biggerstaff Field

Update a link
 
Copyright © AirNav, LLC. All rights reserved. Privacy Policy  Contact